Terminal Aerodrome Forecast
Issued by NWS

Home | Current Version | Previous Version | Text Only | Print | Product List | Glossary On
Versions: 1 2 3 4 5 6 7 8 9 10 11 12 13 14 15 16 17
427
FTUS42 KTAE 231927 AAA
TAFVLD
TAF AMD
KVLD 231927Z 2319/2418 20010G15KT 6SM -SHRA VCTS BKN025CB
      TEMPO 2319/2322 20010G20KT 2SM TSRA BKN025CB
     FM240000 21006KT 6SM -RA OVC025
     FM241300 20010KT 4SM RA VCTS BKN015CB=

USA.gov is the U.S. government's official web portal to all federal, state and local government web resources and services.